sensor_id;sensor_type;location;lat;lon;timestamp;P1;durP1;ratioP1;P2;durP2;ratioP2
33254;SDS011;19623;52.482;9.762;2023-02-15T00:00:02;30.67;;;15.02;;
33254;SDS011;19623;52.482;9.762;2023-02-15T00:02:30;33.20;;;16.48;;
33254;SDS011;19623;52.482;9.762;2023-02-15T00:04:56;38.28;;;18.95;;
33254;SDS011;19623;52.482;9.762;2023-02-15T00:07:21;31.58;;;15.30;;
33254;SDS011;19623;52.482;9.762;2023-02-15T00:09:47;28.92;;;13.52;;
33254;SDS011;19623;52.482;9.762;2023-02-15T00:12:13;25.38;;;13.52;;
33254;SDS011;19623;52.482;9.762;2023-02-15T00:14:40;28.15;;;14.50;;
33254;SDS011;19623;52.482;9.762;2023-02-15T00:17:07;24.92;;;13.48;;
33254;SDS011;19623;52.482;9.762;2023-02-15T00:19:32;30.75;;;15.45;;
33254;SDS011;19623;52.482;9.762;2023-02-15T00:21:58;32.78;;;15.88;;
33254;SDS011;19623;52.482;9.762;2023-02-15T00:24:24;45.13;;;19.55;;
33254;SDS011;19623;52.482;9.762;2023-02-15T00:26:50;42.45;;;18.40;;
33254;SDS011;19623;52.482;9.762;2023-02-15T00:29:16;36.30;;;17.23;;
33254;SDS011;19623;52.482;9.762;2023-02-15T00:31:43;36.35;;;16.08;;
33254;SDS011;19623;52.482;9.762;2023-02-15T00:34:13;32.58;;;15.95;;
33254;SDS011;19623;52.482;9.762;2023-02-15T00:36:40;33.33;;;15.13;;
33254;SDS011;19623;52.482;9.762;2023-02-15T00:39:06;29.58;;;14.95;;
33254;SDS011;19623;52.482;9.762;2023-02-15T00:41:32;28.65;;;15.68;;
33254;SDS011;19623;52.482;9.762;2023-02-15T00:43:58;37.03;;;16.20;;
33254;SDS011;19623;52.482;9.762;2023-02-15T00:46:23;27.55;;;13.88;;
33254;SDS011;19623;52.482;9.762;2023-02-15T00:48:49;30.83;;;14.60;;
33254;SDS011;19623;52.482;9.762;2023-02-15T00:51:15;33.65;;;15.63;;
33254;SDS011;19623;52.482;9.762;2023-02-15T00:53:42;31.67;;;15.27;;
33254;SDS011;19623;52.482;9.762;2023-02-15T00:56:09;29.38;;;14.70;;
33254;SDS011;19623;52.482;9.762;2023-02-15T00:58:35;28.48;;;14.18;;
33254;SDS011;19623;52.482;9.762;2023-02-15T01:01:05;29.05;;;13.98;;
33254;SDS011;19623;52.482;9.762;2023-02-15T01:03:32;29.15;;;13.68;;
33254;SDS011;19623;52.482;9.762;2023-02-15T01:05:58;26.15;;;13.20;;
33254;SDS011;19623;52.482;9.762;2023-02-15T01:08:24;24.70;;;12.75;;
33254;SDS011;19623;52.482;9.762;2023-02-15T01:10:50;25.00;;;12.32;;
33254;SDS011;19623;52.482;9.762;2023-02-15T01:13:16;25.58;;;12.68;;
33254;SDS011;19623;52.482;9.762;2023-02-15T01:15:42;24.90;;;12.60;;
33254;SDS011;19623;52.482;9.762;2023-02-15T01:18:08;25.05;;;12.23;;
33254;SDS011;19623;52.482;9.762;2023-02-15T01:20:35;23.88;;;11.88;;
33254;SDS011;19623;52.482;9.762;2023-02-15T01:23:04;24.30;;;11.90;;
33254;SDS011;19623;52.482;9.762;2023-02-15T01:25:32;25.33;;;12.15;;
33254;SDS011;19623;52.482;9.762;2023-02-15T01:27:59;24.88;;;11.82;;
33254;SDS011;19623;52.482;9.762;2023-02-15T01:30:25;20.90;;;10.63;;
33254;SDS011;19623;52.482;9.762;2023-02-15T01:32:50;24.80;;;12.30;;
33254;SDS011;19623;52.482;9.762;2023-02-15T01:35:16;22.10;;;10.77;;
33254;SDS011;19623;52.482;9.762;2023-02-15T01:37:42;21.42;;;11.27;;
33254;SDS011;19623;52.482;9.762;2023-02-15T01:40:09;20.38;;;11.23;;
33254;SDS011;19623;52.482;9.762;2023-02-15T01:42:38;21.65;;;11.02;;
33254;SDS011;19623;52.482;9.762;2023-02-15T01:45:05;20.92;;;10.98;;
33254;SDS011;19623;52.482;9.762;2023-02-15T01:47:47;24.02;;;12.40;;
33254;SDS011;19623;52.482;9.762;2023-02-15T01:50:21;24.48;;;12.43;;
33254;SDS011;19623;52.482;9.762;2023-02-15T01:55:33;23.85;;;12.07;;
33254;SDS011;19623;52.482;9.762;2023-02-15T01:58:09;25.30;;;12.88;;
33254;SDS011;19623;52.482;9.762;2023-02-15T02:00:34;25.75;;;13.63;;
33254;SDS011;19623;52.482;9.762;2023-02-15T02:03:00;25.35;;;12.77;;
33254;SDS011;19623;52.482;9.762;2023-02-15T02:05:28;26.42;;;13.20;;
33254;SDS011;19623;52.482;9.762;2023-02-15T02:07:56;34.92;;;14.48;;
33254;SDS011;19623;52.482;9.762;2023-02-15T02:10:23;24.48;;;13.23;;
33254;SDS011;19623;52.482;9.762;2023-02-15T02:12:51;25.35;;;13.20;;
33254;SDS011;19623;52.482;9.762;2023-02-15T02:15:21;25.38;;;13.98;;
33254;SDS011;19623;52.482;9.762;2023-02-15T02:18:20;26.73;;;12.85;;
33254;SDS011;19623;52.482;9.762;2023-02-15T02:34:33;21.33;;;10.95;;
33254;SDS011;19623;52.482;9.762;2023-02-15T02:44:44;22.23;;;11.95;;
33254;SDS011;19623;52.482;9.762;2023-02-15T02:49:46;21.17;;;11.23;;
33254;SDS011;19623;52.482;9.762;2023-02-15T02:55:03;28.65;;;13.73;;
33254;SDS011;19623;52.482;9.762;2023-02-15T02:58:01;24.33;;;13.23;;
33254;SDS011;19623;52.482;9.762;2023-02-15T03:00:28;25.10;;;13.07;;
33254;SDS011;19623;52.482;9.762;2023-02-15T03:03:02;25.02;;;12.50;;
33254;SDS011;19623;52.482;9.762;2023-02-15T03:05:33;22.80;;;12.30;;
33254;SDS011;19623;52.482;9.762;2023-02-15T03:08:02;23.30;;;12.20;;
33254;SDS011;19623;52.482;9.762;2023-02-15T03:10:31;24.98;;;12.18;;
33254;SDS011;19623;52.482;9.762;2023-02-15T03:12:59;22.25;;;12.02;;
33254;SDS011;19623;52.482;9.762;2023-02-15T03:15:28;24.95;;;12.88;;
33254;SDS011;19623;52.482;9.762;2023-02-15T03:18:17;25.30;;;12.73;;
33254;SDS011;19623;52.482;9.762;2023-02-15T03:20:45;24.63;;;11.98;;
33254;SDS011;19623;52.482;9.762;2023-02-15T03:23:15;21.45;;;11.43;;
33254;SDS011;19623;52.482;9.762;2023-02-15T03:25:47;23.55;;;11.95;;
33254;SDS011;19623;52.482;9.762;2023-02-15T03:28:19;23.42;;;12.75;;
33254;SDS011;19623;52.482;9.762;2023-02-15T03:30:51;26.58;;;11.90;;
33254;SDS011;19623;52.482;9.762;2023-02-15T03:33:20;25.17;;;11.90;;
33254;SDS011;19623;52.482;9.762;2023-02-15T03:35:49;22.00;;;11.75;;
33254;SDS011;19623;52.482;9.762;2023-02-15T03:38:23;23.33;;;11.00;;
33254;SDS011;19623;52.482;9.762;2023-02-15T03:41:01;22.02;;;12.23;;
33254;SDS011;19623;52.482;9.762;2023-02-15T03:43:39;31.75;;;10.00;;
33254;SDS011;19623;52.482;9.762;2023-02-15T03:46:07;44.67;;;10.82;;
33254;SDS011;19623;52.482;9.762;2023-02-15T03:49:18;46.45;;;9.88;;
33254;SDS011;19623;52.482;9.762;2023-02-15T03:51:48;16.08;;;9.20;;
33254;SDS011;19623;52.482;9.762;2023-02-15T03:54:24;20.75;;;10.88;;
33254;SDS011;19623;52.482;9.762;2023-02-15T03:57:08;20.35;;;10.40;;
33254;SDS011;19623;52.482;9.762;2023-02-15T03:59:56;20.20;;;10.80;;
33254;SDS011;19623;52.482;9.762;2023-02-15T04:05:36;30.92;;;11.15;;
33254;SDS011;19623;52.482;9.762;2023-02-15T04:08:03;16.42;;;9.18;;
33254;SDS011;19623;52.482;9.762;2023-02-15T04:10:29;15.35;;;8.85;;
33254;SDS011;19623;52.482;9.762;2023-02-15T04:13:13;18.00;;;9.38;;
33254;SDS011;19623;52.482;9.762;2023-02-15T04:15:39;16.13;;;9.27;;
33254;SDS011;19623;52.482;9.762;2023-02-15T04:18:23;13.70;;;8.32;;
33254;SDS011;19623;52.482;9.762;2023-02-15T04:21:07;15.20;;;8.38;;
33254;SDS011;19623;52.482;9.762;2023-02-15T04:23:51;19.67;;;10.18;;
33254;SDS011;19623;52.482;9.762;2023-02-15T04:26:36;22.80;;;11.23;;
33254;SDS011;19623;52.482;9.762;2023-02-15T04:29:01;21.67;;;10.55;;
33254;SDS011;19623;52.482;9.762;2023-02-15T04:31:27;23.80;;;11.88;;
33254;SDS011;19623;52.482;9.762;2023-02-15T04:33:52;31.40;;;13.68;;
33254;SDS011;19623;52.482;9.762;2023-02-15T04:36:18;23.65;;;12.10;;
33254;SDS011;19623;52.482;9.762;2023-02-15T04:38:43;25.40;;;11.75;;
33254;SDS011;19623;52.482;9.762;2023-02-15T04:41:09;25.75;;;12.65;;
33254;SDS011;19623;52.482;9.762;2023-02-15T04:43:37;31.83;;;15.15;;
33254;SDS011;19623;52.482;9.762;2023-02-15T04:46:03;35.78;;;15.85;;
33254;SDS011;19623;52.482;9.762;2023-02-15T04:48:29;36.00;;;17.08;;
33254;SDS011;19623;52.482;9.762;2023-02-15T04:50:55;28.95;;;13.73;;
33254;SDS011;19623;52.482;9.762;2023-02-15T04:53:20;35.15;;;15.80;;
33254;SDS011;19623;52.482;9.762;2023-02-15T04:55:46;31.05;;;15.10;;
33254;SDS011;19623;52.482;9.762;2023-02-15T04:58:12;31.08;;;15.07;;
33254;SDS011;19623;52.482;9.762;2023-02-15T05:00:38;26.63;;;13.13;;
33254;SDS011;19623;52.482;9.762;2023-02-15T05:03:03;22.02;;;11.35;;
33254;SDS011;19623;52.482;9.762;2023-02-15T05:05:29;23.50;;;11.35;;
33254;SDS011;19623;52.482;9.762;2023-02-15T05:07:54;22.38;;;11.77;;
33254;SDS011;19623;52.482;9.762;2023-02-15T05:10:20;20.42;;;10.32;;
33254;SDS011;19623;52.482;9.762;2023-02-15T05:12:46;18.75;;;9.65;;
33254;SDS011;19623;52.482;9.762;2023-02-15T05:15:12;20.55;;;10.90;;
33254;SDS011;19623;52.482;9.762;2023-02-15T05:17:38;26.35;;;11.10;;
33254;SDS011;19623;52.482;9.762;2023-02-15T05:20:04;18.65;;;10.30;;
33254;SDS011;19623;52.482;9.762;2023-02-15T05:22:30;21.52;;;10.70;;
33254;SDS011;19623;52.482;9.762;2023-02-15T05:24:55;24.02;;;10.50;;
33254;SDS011;19623;52.482;9.762;2023-02-15T05:27:40;20.90;;;10.88;;
33254;SDS011;19623;52.482;9.762;2023-02-15T05:30:24;19.00;;;10.10;;
33254;SDS011;19623;52.482;9.762;2023-02-15T05:32:49;23.63;;;11.25;;
33254;SDS011;19623;52.482;9.762;2023-02-15T05:35:15;19.67;;;10.13;;
33254;SDS011;19623;52.482;9.762;2023-02-15T05:37:41;21.20;;;9.95;;
33254;SDS011;19623;52.482;9.762;2023-02-15T05:40:07;20.20;;;10.77;;
33254;SDS011;19623;52.482;9.762;2023-02-15T05:42:33;22.25;;;10.70;;
33254;SDS011;19623;52.482;9.762;2023-02-15T05:44:59;24.25;;;11.73;;
33254;SDS011;19623;52.482;9.762;2023-02-15T05:47:24;21.17;;;10.52;;
33254;SDS011;19623;52.482;9.762;2023-02-15T05:49:50;24.48;;;12.75;;
33254;SDS011;19623;52.482;9.762;2023-02-15T05:52:16;26.42;;;12.93;;
33254;SDS011;19623;52.482;9.762;2023-02-15T05:54:41;27.15;;;13.13;;
33254;SDS011;19623;52.482;9.762;2023-02-15T05:57:07;30.55;;;12.50;;
33254;SDS011;19623;52.482;9.762;2023-02-15T05:59:33;23.83;;;11.63;;
33254;SDS011;19623;52.482;9.762;2023-02-15T06:01:58;22.52;;;12.00;;
33254;SDS011;19623;52.482;9.762;2023-02-15T06:04:24;22.88;;;11.20;;
33254;SDS011;19623;52.482;9.762;2023-02-15T06:06:50;21.13;;;11.45;;
33254;SDS011;19623;52.482;9.762;2023-02-15T06:09:15;21.92;;;10.95;;
33254;SDS011;19623;52.482;9.762;2023-02-15T06:11:43;20.42;;;10.70;;
33254;SDS011;19623;52.482;9.762;2023-02-15T06:14:10;24.10;;;11.50;;
33254;SDS011;19623;52.482;9.762;2023-02-15T06:16:37;24.55;;;12.13;;
33254;SDS011;19623;52.482;9.762;2023-02-15T06:19:03;26.20;;;13.43;;
33254;SDS011;19623;52.482;9.762;2023-02-15T06:21:29;26.50;;;12.50;;
33254;SDS011;19623;52.482;9.762;2023-02-15T06:23:55;22.90;;;12.10;;
33254;SDS011;19623;52.482;9.762;2023-02-15T06:26:20;24.58;;;12.20;;
33254;SDS011;19623;52.482;9.762;2023-02-15T06:28:46;25.33;;;12.02;;
33254;SDS011;19623;52.482;9.762;2023-02-15T06:31:12;27.70;;;13.02;;
33254;SDS011;19623;52.482;9.762;2023-02-15T06:33:37;30.85;;;12.15;;
33254;SDS011;19623;52.482;9.762;2023-02-15T06:36:03;25.42;;;12.13;;
33254;SDS011;19623;52.482;9.762;2023-02-15T06:38:29;23.05;;;11.52;;
33254;SDS011;19623;52.482;9.762;2023-02-15T06:40:55;23.23;;;11.57;;
33254;SDS011;19623;52.482;9.762;2023-02-15T06:43:21;22.40;;;11.32;;
33254;SDS011;19623;52.482;9.762;2023-02-15T06:45:46;23.15;;;10.98;;
33254;SDS011;19623;52.482;9.762;2023-02-15T06:48:12;23.50;;;11.23;;
33254;SDS011;19623;52.482;9.762;2023-02-15T06:50:39;22.80;;;11.25;;
33254;SDS011;19623;52.482;9.762;2023-02-15T06:53:04;24.67;;;10.95;;
33254;SDS011;19623;52.482;9.762;2023-02-15T06:55:30;22.48;;;10.90;;
33254;SDS011;19623;52.482;9.762;2023-02-15T06:57:56;21.17;;;10.23;;
33254;SDS011;19623;52.482;9.762;2023-02-15T07:00:21;20.83;;;10.95;;
33254;SDS011;19623;52.482;9.762;2023-02-15T07:02:48;20.13;;;10.52;;
33254;SDS011;19623;52.482;9.762;2023-02-15T07:05:20;23.35;;;10.88;;
33254;SDS011;19623;52.482;9.762;2023-02-15T07:07:46;25.52;;;10.35;;
33254;SDS011;19623;52.482;9.762;2023-02-15T07:10:12;19.42;;;10.43;;
33254;SDS011;19623;52.482;9.762;2023-02-15T07:12:37;23.02;;;11.40;;
33254;SDS011;19623;52.482;9.762;2023-02-15T07:15:06;21.50;;;11.35;;
33254;SDS011;19623;52.482;9.762;2023-02-15T07:17:34;22.45;;;11.20;;
33254;SDS011;19623;52.482;9.762;2023-02-15T07:20:01;21.25;;;10.82;;
33254;SDS011;19623;52.482;9.762;2023-02-15T07:22:33;25.58;;;10.52;;
33254;SDS011;19623;52.482;9.762;2023-02-15T07:25:01;23.42;;;10.85;;
33254;SDS011;19623;52.482;9.762;2023-02-15T07:27:28;21.95;;;11.23;;
33254;SDS011;19623;52.482;9.762;2023-02-15T07:29:55;28.75;;;11.30;;
33254;SDS011;19623;52.482;9.762;2023-02-15T07:32:20;23.77;;;10.90;;
33254;SDS011;19623;52.482;9.762;2023-02-15T07:34:46;20.20;;;10.63;;
33254;SDS011;19623;52.482;9.762;2023-02-15T07:37:12;18.73;;;10.25;;
33254;SDS011;19623;52.482;9.762;2023-02-15T07:39:37;22.63;;;10.70;;
33254;SDS011;19623;52.482;9.762;2023-02-15T07:42:03;22.02;;;10.32;;
33254;SDS011;19623;52.482;9.762;2023-02-15T07:44:29;26.15;;;11.63;;
33254;SDS011;19623;52.482;9.762;2023-02-15T07:46:54;19.52;;;10.73;;
33254;SDS011;19623;52.482;9.762;2023-02-15T07:49:20;24.90;;;11.43;;
33254;SDS011;19623;52.482;9.762;2023-02-15T07:51:46;23.65;;;12.38;;
33254;SDS011;19623;52.482;9.762;2023-02-15T07:54:11;19.45;;;10.30;;
33254;SDS011;19623;52.482;9.762;2023-02-15T07:56:37;22.23;;;10.82;;
33254;SDS011;19623;52.482;9.762;2023-02-15T07:59:03;27.02;;;11.25;;
33254;SDS011;19623;52.482;9.762;2023-02-15T08:01:34;19.85;;;10.77;;
33254;SDS011;19623;52.482;9.762;2023-02-15T08:04:01;23.80;;;11.15;;
33254;SDS011;19623;52.482;9.762;2023-02-15T08:06:30;22.63;;;11.40;;
33254;SDS011;19623;52.482;9.762;2023-02-15T08:08:57;19.55;;;10.88;;
33254;SDS011;19623;52.482;9.762;2023-02-15T08:11:24;22.13;;;12.23;;
33254;SDS011;19623;52.482;9.762;2023-02-15T08:13:58;25.00;;;11.23;;
33254;SDS011;19623;52.482;9.762;2023-02-15T08:18:57;22.50;;;12.07;;
33254;SDS011;19623;52.482;9.762;2023-02-15T08:21:26;20.15;;;11.60;;
33254;SDS011;19623;52.482;9.762;2023-02-15T08:23:53;18.85;;;10.57;;
33254;SDS011;19623;52.482;9.762;2023-02-15T08:26:19;20.42;;;10.77;;
33254;SDS011;19623;52.482;9.762;2023-02-15T08:28:45;22.88;;;12.35;;
33254;SDS011;19623;52.482;9.762;2023-02-15T08:31:12;26.13;;;12.75;;
33254;SDS011;19623;52.482;9.762;2023-02-15T08:33:39;26.63;;;12.55;;
33254;SDS011;19623;52.482;9.762;2023-02-15T08:36:06;27.25;;;13.20;;
33254;SDS011;19623;52.482;9.762;2023-02-15T08:38:34;22.08;;;12.15;;
33254;SDS011;19623;52.482;9.762;2023-02-15T08:43:36;24.25;;;12.85;;
33254;SDS011;19623;52.482;9.762;2023-02-15T08:46:02;27.60;;;12.82;;
33254;SDS011;19623;52.482;9.762;2023-02-15T08:48:27;23.98;;;12.95;;
33254;SDS011;19623;52.482;9.762;2023-02-15T08:50:53;28.35;;;13.55;;
33254;SDS011;19623;52.482;9.762;2023-02-15T08:53:19;26.42;;;13.20;;
33254;SDS011;19623;52.482;9.762;2023-02-15T08:55:46;25.08;;;13.35;;
33254;SDS011;19623;52.482;9.762;2023-02-15T08:58:19;24.33;;;13.80;;
33254;SDS011;19623;52.482;9.762;2023-02-15T09:00:45;21.95;;;12.02;;
33254;SDS011;19623;52.482;9.762;2023-02-15T09:03:13;29.30;;;14.85;;
33254;SDS011;19623;52.482;9.762;2023-02-15T09:05:39;29.95;;;14.90;;
33254;SDS011;19623;52.482;9.762;2023-02-15T09:08:04;27.35;;;14.00;;
33254;SDS011;19623;52.482;9.762;2023-02-15T09:10:30;29.40;;;14.40;;
33254;SDS011;19623;52.482;9.762;2023-02-15T09:12:56;26.65;;;14.23;;
33254;SDS011;19623;52.482;9.762;2023-02-15T09:15:21;26.48;;;13.80;;
33254;SDS011;19623;52.482;9.762;2023-02-15T09:17:47;30.70;;;14.77;;
33254;SDS011;19623;52.482;9.762;2023-02-15T09:20:13;28.95;;;14.30;;
33254;SDS011;19623;52.482;9.762;2023-02-15T09:22:38;29.77;;;14.52;;
33254;SDS011;19623;52.482;9.762;2023-02-15T09:25:04;27.95;;;14.98;;
33254;SDS011;19623;52.482;9.762;2023-02-15T09:27:30;29.67;;;15.35;;
33254;SDS011;19623;52.482;9.762;2023-02-15T09:29:55;31.60;;;15.15;;
33254;SDS011;19623;52.482;9.762;2023-02-15T09:32:21;31.45;;;16.13;;
33254;SDS011;19623;52.482;9.762;2023-02-15T09:34:47;29.05;;;14.68;;
33254;SDS011;19623;52.482;9.762;2023-02-15T09:37:13;29.58;;;16.15;;
33254;SDS011;19623;52.482;9.762;2023-02-15T09:39:39;30.02;;;15.10;;
33254;SDS011;19623;52.482;9.762;2023-02-15T09:51:17;29.60;;;15.18;;
33254;SDS011;19623;52.482;9.762;2023-02-15T09:54:21;26.25;;;14.32;;
33254;SDS011;19623;52.482;9.762;2023-02-15T09:57:11;29.08;;;14.43;;
33254;SDS011;19623;52.482;9.762;2023-02-15T10:05:19;31.10;;;14.82;;
33254;SDS011;19623;52.482;9.762;2023-02-15T10:08:06;31.10;;;15.02;;
33254;SDS011;19623;52.482;9.762;2023-02-15T10:11:31;29.83;;;14.55;;
33254;SDS011;19623;52.482;9.762;2023-02-15T10:16:51;27.33;;;14.68;;
33254;SDS011;19623;52.482;9.762;2023-02-15T10:24:44;24.45;;;13.20;;
33254;SDS011;19623;52.482;9.762;2023-02-15T10:27:36;24.55;;;12.93;;
33254;SDS011;19623;52.482;9.762;2023-02-15T10:30:15;23.25;;;12.77;;
33254;SDS011;19623;52.482;9.762;2023-02-15T10:43:52;29.05;;;13.07;;
33254;SDS011;19623;52.482;9.762;2023-02-15T10:52:09;22.73;;;12.10;;
33254;SDS011;19623;52.482;9.762;2023-02-15T10:54:40;23.87;;;12.57;;
33254;SDS011;19623;52.482;9.762;2023-02-15T11:00:28;24.25;;;12.38;;
33254;SDS011;19623;52.482;9.762;2023-02-15T11:08:48;21.15;;;11.35;;
33254;SDS011;19623;52.482;9.762;2023-02-15T11:11:27;23.67;;;12.50;;
33254;SDS011;19623;52.482;9.762;2023-02-15T11:13:58;21.67;;;12.07;;
33254;SDS011;19623;52.482;9.762;2023-02-15T11:16:38;19.42;;;11.25;;
33254;SDS011;19623;52.482;9.762;2023-02-15T11:21:50;24.83;;;12.85;;
33254;SDS011;19623;52.482;9.762;2023-02-15T11:24:25;21.30;;;12.27;;
33254;SDS011;19623;52.482;9.762;2023-02-15T11:29:26;23.50;;;12.50;;
33254;SDS011;19623;52.482;9.762;2023-02-15T11:32:12;22.70;;;11.85;;
33254;SDS011;19623;52.482;9.762;2023-02-15T11:37:40;22.42;;;12.20;;
33254;SDS011;19623;52.482;9.762;2023-02-15T11:40:25;22.88;;;12.35;;
33254;SDS011;19623;52.482;9.762;2023-02-15T11:42:54;21.77;;;11.45;;
33254;SDS011;19623;52.482;9.762;2023-02-15T11:45:35;24.02;;;12.48;;
33254;SDS011;19623;52.482;9.762;2023-02-15T11:48:04;20.80;;;11.98;;
33254;SDS011;19623;52.482;9.762;2023-02-15T11:50:35;29.95;;;13.75;;
33254;SDS011;19623;52.482;9.762;2023-02-15T11:53:07;26.90;;;13.00;;
33254;SDS011;19623;52.482;9.762;2023-02-15T11:55:43;23.63;;;12.40;;
33254;SDS011;19623;52.482;9.762;2023-02-15T11:58:22;22.15;;;11.77;;
33254;SDS011;19623;52.482;9.762;2023-02-15T12:01:18;25.80;;;12.77;;
33254;SDS011;19623;52.482;9.762;2023-02-15T12:03:49;23.27;;;13.10;;
33254;SDS011;19623;52.482;9.762;2023-02-15T12:06:30;22.33;;;12.50;;
33254;SDS011;19623;52.482;9.762;2023-02-15T12:11:54;28.13;;;12.68;;
33254;SDS011;19623;52.482;9.762;2023-02-15T12:14:51;31.17;;;14.10;;
33254;SDS011;19623;52.482;9.762;2023-02-15T12:17:20;28.65;;;12.75;;
33254;SDS011;19623;52.482;9.762;2023-02-15T12:19:48;22.50;;;13.25;;
33254;SDS011;19623;52.482;9.762;2023-02-15T12:22:21;25.30;;;13.45;;
33254;SDS011;19623;52.482;9.762;2023-02-15T12:24:52;31.08;;;13.88;;
33254;SDS011;19623;52.482;9.762;2023-02-15T12:27:28;28.70;;;13.60;;
33254;SDS011;19623;52.482;9.762;2023-02-15T12:32:25;24.25;;;12.73;;
33254;SDS011;19623;52.482;9.762;2023-02-15T12:35:26;27.38;;;13.32;;
33254;SDS011;19623;52.482;9.762;2023-02-15T12:37:57;22.17;;;13.07;;
33254;SDS011;19623;52.482;9.762;2023-02-15T12:40:36;26.95;;;13.02;;
33254;SDS011;19623;52.482;9.762;2023-02-15T12:43:03;23.20;;;13.13;;
33254;SDS011;19623;52.482;9.762;2023-02-15T12:45:35;25.42;;;13.13;;
33254;SDS011;19623;52.482;9.762;2023-02-15T12:48:15;28.23;;;13.90;;
33254;SDS011;19623;52.482;9.762;2023-02-15T12:53:17;23.98;;;12.43;;
33254;SDS011;19623;52.482;9.762;2023-02-15T12:56:04;26.35;;;13.13;;
33254;SDS011;19623;52.482;9.762;2023-02-15T12:58:32;24.90;;;12.98;;
33254;SDS011;19623;52.482;9.762;2023-02-15T13:03:28;30.35;;;14.50;;
33254;SDS011;19623;52.482;9.762;2023-02-15T13:05:54;26.17;;;14.15;;
33254;SDS011;19623;52.482;9.762;2023-02-15T13:08:30;27.30;;;13.05;;
33254;SDS011;19623;52.482;9.762;2023-02-15T13:11:06;29.63;;;12.68;;
33254;SDS011;19623;52.482;9.762;2023-02-15T13:13:35;24.70;;;12.75;;
33254;SDS011;19623;52.482;9.762;2023-02-15T13:16:32;27.60;;;14.40;;
33254;SDS011;19623;52.482;9.762;2023-02-15T13:19:09;25.80;;;12.93;;
33254;SDS011;19623;52.482;9.762;2023-02-15T13:21:47;25.33;;;13.65;;
33254;SDS011;19623;52.482;9.762;2023-02-15T13:24:17;25.55;;;13.38;;
33254;SDS011;19623;52.482;9.762;2023-02-15T13:26:48;24.00;;;13.00;;
33254;SDS011;19623;52.482;9.762;2023-02-15T13:29:27;24.35;;;12.55;;
33254;SDS011;19623;52.482;9.762;2023-02-15T13:31:55;26.55;;;13.05;;
33254;SDS011;19623;52.482;9.762;2023-02-15T13:34:36;28.33;;;13.27;;
33254;SDS011;19623;52.482;9.762;2023-02-15T13:37:13;23.38;;;12.95;;
33254;SDS011;19623;52.482;9.762;2023-02-15T13:39:58;27.02;;;12.82;;
33254;SDS011;19623;52.482;9.762;2023-02-15T13:42:45;24.40;;;12.07;;
33254;SDS011;19623;52.482;9.762;2023-02-15T13:48:08;23.70;;;12.32;;
33254;SDS011;19623;52.482;9.762;2023-02-15T14:14:21;24.98;;;11.82;;
33254;SDS011;19623;52.482;9.762;2023-02-15T14:31:10;20.63;;;11.20;;
33254;SDS011;19623;52.482;9.762;2023-02-15T14:33:39;27.23;;;11.52;;
33254;SDS011;19623;52.482;9.762;2023-02-15T14:36:09;32.05;;;12.07;;
33254;SDS011;19623;52.482;9.762;2023-02-15T14:41:37;24.02;;;12.50;;
33254;SDS011;19623;52.482;9.762;2023-02-15T14:44:15;21.63;;;11.00;;
33254;SDS011;19623;52.482;9.762;2023-02-15T14:47:00;24.85;;;12.10;;
33254;SDS011;19623;52.482;9.762;2023-02-15T14:49:38;20.92;;;11.98;;
33254;SDS011;19623;52.482;9.762;2023-02-15T14:52:08;23.08;;;12.10;;
33254;SDS011;19623;52.482;9.762;2023-02-15T14:59:37;21.13;;;11.25;;
33254;SDS011;19623;52.482;9.762;2023-02-15T15:04:43;21.02;;;11.73;;
33254;SDS011;19623;52.482;9.762;2023-02-15T15:07:22;20.38;;;11.32;;
33254;SDS011;19623;52.482;9.762;2023-02-15T15:12:48;24.83;;;12.35;;
33254;SDS011;19623;52.482;9.762;2023-02-15T15:18:00;25.33;;;12.50;;
33254;SDS011;19623;52.482;9.762;2023-02-15T15:42:12;22.95;;;12.52;;
33254;SDS011;19623;52.482;9.762;2023-02-15T15:50:31;20.92;;;11.60;;
33254;SDS011;19623;52.482;9.762;2023-02-15T15:52:58;19.65;;;11.55;;
33254;SDS011;19623;52.482;9.762;2023-02-15T15:55:27;24.17;;;11.60;;
33254;SDS011;19623;52.482;9.762;2023-02-15T15:57:59;20.65;;;11.30;;
33254;SDS011;19623;52.482;9.762;2023-02-15T16:00:34;20.85;;;10.93;;
33254;SDS011;19623;52.482;9.762;2023-02-15T16:03:04;22.25;;;11.90;;
33254;SDS011;19623;52.482;9.762;2023-02-15T16:05:37;21.77;;;12.02;;
33254;SDS011;19623;52.482;9.762;2023-02-15T16:08:03;22.65;;;12.00;;
33254;SDS011;19623;52.482;9.762;2023-02-15T16:10:30;22.25;;;12.13;;
33254;SDS011;19623;52.482;9.762;2023-02-15T16:12:58;23.10;;;11.73;;
33254;SDS011;19623;52.482;9.762;2023-02-15T16:15:30;25.17;;;12.20;;
33254;SDS011;19623;52.482;9.762;2023-02-15T16:18:11;21.92;;;11.52;;
33254;SDS011;19623;52.482;9.762;2023-02-15T16:20:41;21.98;;;11.43;;
33254;SDS011;19623;52.482;9.762;2023-02-15T16:28:34;24.83;;;11.68;;
33254;SDS011;19623;52.482;9.762;2023-02-15T16:31:07;20.60;;;11.45;;
33254;SDS011;19623;52.482;9.762;2023-02-15T16:33:38;25.40;;;12.00;;
33254;SDS011;19623;52.482;9.762;2023-02-15T16:36:27;21.50;;;11.25;;
33254;SDS011;19623;52.482;9.762;2023-02-15T16:41:23;22.20;;;12.60;;
33254;SDS011;19623;52.482;9.762;2023-02-15T16:43:52;21.73;;;11.60;;
33254;SDS011;19623;52.482;9.762;2023-02-15T16:46:31;25.73;;;11.85;;
33254;SDS011;19623;52.482;9.762;2023-02-15T16:49:07;19.55;;;11.15;;
33254;SDS011;19623;52.482;9.762;2023-02-15T16:51:45;23.00;;;11.98;;
33254;SDS011;19623;52.482;9.762;2023-02-15T16:54:24;25.35;;;12.65;;
33254;SDS011;19623;52.482;9.762;2023-02-15T16:56:52;28.60;;;12.68;;
33254;SDS011;19623;52.482;9.762;2023-02-15T16:59:28;22.67;;;12.35;;
33254;SDS011;19623;52.482;9.762;2023-02-15T17:01:56;25.27;;;12.05;;
33254;SDS011;19623;52.482;9.762;2023-02-15T17:07:00;22.33;;;11.65;;
33254;SDS011;19623;52.482;9.762;2023-02-15T17:09:26;23.92;;;12.30;;
33254;SDS011;19623;52.482;9.762;2023-02-15T17:11:51;24.15;;;12.60;;
33254;SDS011;19623;52.482;9.762;2023-02-15T17:14:19;23.80;;;11.90;;
33254;SDS011;19623;52.482;9.762;2023-02-15T17:19:17;25.10;;;12.63;;
33254;SDS011;19623;52.482;9.762;2023-02-15T17:22:15;22.48;;;11.93;;
33254;SDS011;19623;52.482;9.762;2023-02-15T17:24:42;21.42;;;12.30;;
33254;SDS011;19623;52.482;9.762;2023-02-15T17:27:18;24.05;;;12.07;;
33254;SDS011;19623;52.482;9.762;2023-02-15T17:29:48;23.63;;;11.95;;
33254;SDS011;19623;52.482;9.762;2023-02-15T17:32:20;25.30;;;13.00;;
33254;SDS011;19623;52.482;9.762;2023-02-15T17:39:50;22.58;;;12.13;;
33254;SDS011;19623;52.482;9.762;2023-02-15T17:42:16;24.80;;;12.43;;
33254;SDS011;19623;52.482;9.762;2023-02-15T17:44:41;26.05;;;13.70;;
33254;SDS011;19623;52.482;9.762;2023-02-15T17:47:09;26.08;;;13.50;;
33254;SDS011;19623;52.482;9.762;2023-02-15T17:49:44;24.80;;;11.90;;
33254;SDS011;19623;52.482;9.762;2023-02-15T17:52:14;25.27;;;12.10;;
33254;SDS011;19623;52.482;9.762;2023-02-15T17:54:41;22.60;;;12.55;;
33254;SDS011;19623;52.482;9.762;2023-02-15T17:57:25;24.15;;;12.75;;
33254;SDS011;19623;52.482;9.762;2023-02-15T17:59:53;24.13;;;12.95;;
33254;SDS011;19623;52.482;9.762;2023-02-15T18:02:37;21.90;;;11.85;;
33254;SDS011;19623;52.482;9.762;2023-02-15T18:05:21;26.88;;;12.77;;
33254;SDS011;19623;52.482;9.762;2023-02-15T18:08:13;24.90;;;12.57;;